Time;durP1;ratioP1;P1;durP2;ratioP2;P2;SDS_P1;SDS_P2;PMS_P1;PMS_P2;Temp;Humidity;BMP_temperature;BMP_pressure;BME280_temperature;BME280_humidity;BME280_pressure;Samples;Min_cycle;Max_cycle;Signal;HPM_P1;HPM_P2
2022/01/26 00:00:05;;;;;;;65.18;28.00;;;1.50;99.90;;;;;;4965040;28;20038;-83
2022/01/26 00:08:09;;;;;;;61.00;29.00;;;1.50;99.90;;;;;;4929666;29;20032;-82
2022/01/26 00:10:35;;;;;;;60.83;27.83;;;1.60;99.90;;;;;;4930323;29;20031;-82
2022/01/26 00:13:01;;;;;;;54.95;26.38;;;1.70;99.90;;;;;;4930141;29;20028;-81
2022/01/26 00:15:29;;;;;;;70.03;30.15;;;1.70;99.90;;;;;;4927880;29;21180;-82
2022/01/26 00:17:56;;;;;;;;;;;1.50;99.90;;;;;;4946398;29;20032;-82
2022/01/26 00:39:35;;;;;;;66.50;28.83;;;1.40;99.90;;;;;;4958820;29;20082;-81
2022/01/26 00:42:01;;;;;;;72.10;30.10;;;1.50;99.90;;;;;;4933170;29;20027;-82
2022/01/26 00:44:35;;;;;;;61.58;28.67;;;1.50;99.90;;;;;;4948683;29;20034;-82
2022/01/26 00:47:01;;;;;;;68.50;30.95;;;1.60;99.90;;;;;;4933513;29;20043;-82
2022/01/26 00:49:27;;;;;;;66.15;29.80;;;1.50;99.90;;;;;;4933310;29;20332;-82
2022/01/26 00:51:54;;;;;;;66.20;29.38;;;1.40;99.90;;;;;;4948984;29;20019;-83
2022/01/26 00:54:20;;;;;;;65.40;29.42;;;1.40;99.90;;;;;;4948080;29;20306;-82
2022/01/26 00:56:46;;;;;;;68.03;29.25;;;1.50;99.90;;;;;;4967383;28;20029;-81
2022/01/26 00:59:12;;;;;;;62.08;28.38;;;1.60;99.90;;;;;;4936843;29;20027;-82
2022/01/26 01:01:38;;;;;;;69.82;30.40;;;1.70;99.90;;;;;;4955492;28;20047;-83
2022/01/26 01:04:04;;;;;;;73.95;30.88;;;1.80;99.90;;;;;;4969416;29;20074;-83
2022/01/26 01:06:38;;;;;;;67.72;29.15;;;1.80;99.90;;;;;;4950928;29;20031;-82
2022/01/26 01:09:04;;;;;;;76.60;30.70;;;1.90;99.90;;;;;;4951355;29;20102;-84
2022/01/26 01:11:30;;;;;;;70.30;30.60;;;2.00;99.90;;;;;;4967614;29;20027;-83
2022/01/26 01:13:56;;;;;;;70.65;29.92;;;2.00;99.90;;;;;;4950680;29;20031;-81
2022/01/26 01:16:23;;;;;;;69.15;30.00;;;2.00;99.90;;;;;;4966293;29;20027;-83
2022/01/26 01:31:51;;;;;;;66.95;29.48;;;1.30;99.90;;;;;;4966633;29;20030;-80
2022/01/26 01:34:21;;;;;;;67.78;29.63;;;1.30;99.90;;;;;;4968039;28;20055;-82
2022/01/26 01:36:50;;;;;;;73.03;29.15;;;1.30;99.90;;;;;;4968564;28;20027;-81
2022/01/26 01:39:20;;;;;;;69.20;30.30;;;1.10;99.90;;;;;;4966413;29;20028;-81
2022/01/26 01:41:48;;;;;;;73.72;29.38;;;1.10;99.90;;;;;;4966645;29;20030;-80
2022/01/26 01:44:15;;;;;;;70.85;30.58;;;1.10;99.90;;;;;;4968775;28;20037;-80
2022/01/26 01:46:42;;;;;;;70.90;30.70;;;1.00;99.90;;;;;;4968608;28;20102;-80
2022/01/26 01:49:11;;;;;;;66.80;29.98;;;1.00;99.90;;;;;;4966416;29;20276;-81
2022/01/26 01:51:40;;;;;;;;;;;1.00;99.90;;;;;;4966351;29;20358;-79
2022/01/26 01:54:15;;;;;;;68.88;28.67;;;0.90;99.90;;;;;;4966237;29;19906;-81
2022/01/26 01:56:43;;;;;;;68.10;29.83;;;0.90;99.90;;;;;;4965752;29;20035;-79
2022/01/26 01:59:10;;;;;;;68.32;28.77;;;0.80;99.90;;;;;;4966051;29;20101;-81
2022/01/26 02:01:36;;;;;;;69.93;28.40;;;0.90;99.90;;;;;;4953789;28;20164;-81
2022/01/26 02:04:02;;;;;;;66.53;28.38;;;0.80;99.90;;;;;;4931178;29;20217;-81
2022/01/26 02:06:28;;;;;;;66.25;28.05;;;0.80;99.90;;;;;;4930431;29;20036;-81
2022/01/26 02:08:54;;;;;;;66.57;27.88;;;0.70;99.90;;;;;;4913698;29;20023;-82
2022/01/26 02:11:19;;;;;;;65.82;28.25;;;0.70;99.90;;;;;;4930180;29;20095;-81
2022/01/26 02:16:23;;;;;;;59.03;26.35;;;0.60;99.90;;;;;;4930161;29;20091;-81
2022/01/26 02:57:05;;;;;;;41.60;19.33;;;0.10;99.90;;;;;;4946102;29;20031;-79
2022/01/26 03:02:07;;;;;;;41.90;19.75;;;0.10;99.90;;;;;;4946274;28;20234;-80
2022/01/26 03:04:44;;;;;;;44.88;19.38;;;0.10;99.90;;;;;;4946214;29;20086;-80
2022/01/26 03:07:26;;;;;;;41.50;20.58;;;0.10;99.90;;;;;;4914029;29;20047;-80
2022/01/26 03:10:02;;;;;;;43.83;20.55;;;0.10;99.90;;;;;;4929379;29;20040;-80
2022/01/26 03:12:38;;;;;;;41.45;18.88;;;0.10;99.90;;;;;;4929239;29;20035;-81
2022/01/26 03:15:13;;;;;;;43.50;21.15;;;0.00;99.90;;;;;;4945237;29;20051;-80
2022/01/26 03:20:10;;;;;;;45.80;20.35;;;0.00;99.90;;;;;;4945636;29;20059;-80
2022/01/26 03:28:22;;;;;;;41.38;20.27;;;0.00;99.90;;;;;;4945961;29;20205;-80
2022/01/26 03:35:58;;;;;;;44.13;20.58;;;0.00;99.90;;;;;;4928896;29;20031;-80
2022/01/26 03:38:39;;;;;;;43.28;20.48;;;0.00;99.90;;;;;;4928982;29;20055;-79
2022/01/26 03:43:53;;;;;;;41.90;20.40;;;0.00;99.90;;;;;;4931116;29;20110;-78
2022/01/26 03:46:18;;;;;;;47.13;20.20;;;0.00;99.90;;;;;;4931240;29;20038;-79
2022/01/26 03:48:44;;;;;;;44.70;19.13;;;0.00;99.90;;;;;;4928888;29;20078;-79
2022/01/26 03:51:10;;;;;;;42.85;20.35;;;0.00;99.90;;;;;;4928821;29;20031;-80
2022/01/26 03:57:09;;;;;;;44.60;19.25;;;-0.10;99.90;;;;;;4945628;29;20102;-80
2022/01/26 03:59:35;;;;;;;46.67;21.65;;;-0.10;99.90;;;;;;4927979;29;20028;-79
2022/01/26 04:02:01;;;;;;;42.88;19.77;;;0.00;99.90;;;;;;4945155;28;20047;-80
2022/01/26 04:04:30;;;;;;;45.45;20.30;;;0.10;99.90;;;;;;4943585;29;20024;-79
2022/01/26 04:06:59;;;;;;;46.05;19.88;;;0.20;99.90;;;;;;4912727;29;20039;-79
2022/01/26 04:09:25;;;;;;;43.60;20.13;;;0.10;99.90;;;;;;4912697;29;20026;-80
2022/01/26 04:11:51;;;;;;;49.22;21.63;;;0.10;99.90;;;;;;4945295;29;20254;-80
2022/01/26 04:14:22;;;;;;;46.80;20.48;;;0.00;99.90;;;;;;4944170;29;20047;-79
2022/01/26 04:16:48;;;;;;;49.28;20.33;;;0.00;99.90;;;;;;4927496;29;20035;-80
2022/01/26 04:19:14;;;;;;;49.67;21.83;;;0.00;99.90;;;;;;4928399;29;20019;-80
2022/01/26 04:22:00;;;;;;;46.72;20.65;;;0.10;99.90;;;;;;4928013;29;20028;-79
2022/01/26 04:24:40;;;;;;;50.75;21.17;;;0.10;99.90;;;;;;4927817;29;20028;-79
2022/01/26 04:27:25;;;;;;;54.38;22.15;;;0.10;99.90;;;;;;4944862;29;20373;-79
2022/01/26 04:29:51;;;;;;;50.85;22.38;;;0.10;99.90;;;;;;4927704;29;20035;-80
2022/01/26 04:32:18;;;;;;;51.78;20.80;;;0.00;99.90;;;;;;4927494;29;20091;-79
2022/01/26 04:34:47;;;;;;;53.20;21.42;;;0.10;99.90;;;;;;4943419;29;20027;-80
2022/01/26 04:39:47;;;;;;;53.22;22.42;;;0.20;99.90;;;;;;4944222;29;20027;-81
2022/01/26 04:42:18;;;;;;;49.17;22.00;;;0.30;99.90;;;;;;4928051;29;20382;-79
2022/01/26 04:44:55;;;;;;;53.83;21.52;;;0.20;99.90;;;;;;4927787;29;20030;-80
2022/01/26 04:47:21;;;;;;;53.50;22.02;;;0.20;99.90;;;;;;4928160;29;20064;-80
2022/01/26 04:49:47;;;;;;;50.75;22.00;;;0.20;99.90;;;;;;4944699;29;20078;-80
2022/01/26 04:52:13;;;;;;;55.30;21.17;;;0.10;99.90;;;;;;4944753;29;20218;-80
2022/01/26 04:54:38;;;;;;;58.03;22.23;;;0.20;99.90;;;;;;4944320;29;20024;-79
2022/01/26 04:57:04;;;;;;;55.00;22.15;;;0.20;99.90;;;;;;4944568;29;20063;-80
2022/01/26 04:59:30;;;;;;;56.17;23.00;;;0.20;99.90;;;;;;4944208;29;20031;-80
2022/01/26 05:01:56;;;;;;;56.38;21.45;;;0.20;99.90;;;;;;4944454;29;20118;-80
2022/01/26 05:04:22;;;;;;;57.38;23.65;;;0.10;99.90;;;;;;4927935;29;20030;-81
2022/01/26 05:06:47;;;;;;;55.90;22.20;;;0.10;99.90;;;;;;4944224;29;20314;-79
2022/01/26 05:09:13;;;;;;;55.47;21.50;;;0.10;99.90;;;;;;4928051;29;20318;-80
2022/01/26 05:11:42;;;;;;;55.45;22.08;;;0.10;99.90;;;;;;4927022;29;20039;-80
2022/01/26 05:14:08;;;;;;;55.33;22.05;;;0.30;99.90;;;;;;4944590;29;20031;-79
2022/01/26 05:16:34;;;;;;;57.22;23.10;;;0.30;99.90;;;;;;4927229;29;20095;-79
2022/01/26 05:19:05;;;;;;;52.75;21.35;;;0.20;99.90;;;;;;4944531;29;20039;-79
2022/01/26 05:21:31;;;;;;;55.55;22.17;;;0.30;99.90;;;;;;4927839;29;20035;-80
2022/01/26 05:23:57;;;;;;;53.33;22.25;;;0.30;99.90;;;;;;4927540;29;20062;-80
2022/01/26 05:26:23;;;;;;;52.47;21.88;;;0.30;99.90;;;;;;4944467;29;20036;-79
2022/01/26 05:28:49;;;;;;;55.50;21.63;;;0.40;99.90;;;;;;4927049;29;20271;-79
2022/01/26 05:31:14;;;;;;;51.72;22.42;;;0.40;99.90;;;;;;4943104;29;20046;-80
2022/01/26 05:33:41;;;;;;;53.83;21.55;;;0.50;99.90;;;;;;4943647;29;20077;-80
2022/01/26 05:36:07;;;;;;;48.85;21.33;;;0.50;99.90;;;;;;4928386;29;20102;-80
2022/01/26 05:38:33;;;;;;;50.20;22.02;;;0.60;99.90;;;;;;4927583;29;20038;-79
2022/01/26 05:41:01;;;;;;;49.22;20.92;;;0.40;99.90;;;;;;4927468;29;20032;-79
2022/01/26 05:43:32;;;;;;;49.72;21.73;;;0.40;99.90;;;;;;4914331;29;20031;-80
2022/01/26 05:46:04;;;;;;;47.28;20.48;;;0.30;99.90;;;;;;4947977;29;20043;-79
2022/01/26 05:48:30;;;;;;;50.67;21.73;;;0.40;99.90;;;;;;4930918;29;20377;-80
2022/01/26 05:51:04;;;;;;;45.58;20.88;;;0.50;99.90;;;;;;4930978;29;20065;-80
2022/01/26 05:53:37;;;;;;;50.55;21.83;;;0.40;99.90;;;;;;4932038;29;20031;-80
2022/01/26 05:56:03;;;;;;;47.97;20.08;;;0.20;99.90;;;;;;4947832;29;20027;-82
2022/01/26 05:58:29;;;;;;;52.38;23.20;;;0.20;99.90;;;;;;4931030;29;20027;-79
2022/01/26 06:00:59;;;;;;;50.42;20.73;;;0.10;99.90;;;;;;4941505;28;20051;-79
2022/01/26 06:03:26;;;;;;;50.30;21.23;;;0.10;99.90;;;;;;4982634;28;20031;-80
2022/01/26 06:05:58;;;;;;;51.22;22.00;;;0.10;99.90;;;;;;4984548;28;20397;-79
2022/01/26 06:08:27;;;;;;;51.45;22.17;;;0.20;99.90;;;;;;4968610;28;20026;-82
2022/01/26 06:10:55;;;;;;;55.35;21.85;;;0.20;99.90;;;;;;4985672;28;20284;-82
2022/01/26 06:13:21;;;;;;;52.85;22.98;;;0.20;99.90;;;;;;4984861;28;20027;-81
2022/01/26 06:15:47;;;;;;;48.83;21.38;;;0.30;99.90;;;;;;4984177;28;20102;-81
2022/01/26 06:18:14;;;;;;;55.35;22.90;;;0.30;99.90;;;;;;4968982;28;20030;-81
2022/01/26 06:21:10;;;;;;;48.97;21.85;;;0.30;99.90;;;;;;4984040;28;20023;-82
2022/01/26 06:23:36;;;;;;;52.88;21.77;;;0.30;99.90;;;;;;4956336;28;20062;-81
2022/01/26 06:26:02;;;;;;;51.80;22.50;;;0.20;99.90;;;;;;4968537;28;20057;-82
2022/01/26 06:28:28;;;;;;;53.50;22.15;;;0.20;99.90;;;;;;4985064;28;20154;-81
2022/01/26 06:31:02;;;;;;;49.67;21.30;;;0.20;99.90;;;;;;4983604;28;20038;-80
2022/01/26 06:33:29;;;;;;;55.55;22.65;;;0.20;99.90;;;;;;4984641;28;20073;-82
2022/01/26 06:35:57;;;;;;;49.30;21.30;;;0.30;99.90;;;;;;4983829;28;20031;-81
2022/01/26 06:38:24;;;;;;;48.35;22.45;;;0.40;99.90;;;;;;4968538;28;20329;-80
2022/01/26 06:40:51;;;;;;;52.90;22.40;;;0.20;99.90;;;;;;4984848;28;20070;-81
2022/01/26 06:43:18;;;;;;;49.05;22.15;;;0.30;99.90;;;;;;4984390;28;20658;-82
2022/01/26 06:45:50;;;;;;;51.10;21.95;;;0.30;99.90;;;;;;4967016;28;20069;-81
2022/01/26 06:50:57;;;;;;;;;;;;;;;;;;;;;
2022/01/26 06:53:26;;;;;;;53.28;22.45;;;0.40;99.90;;;;;;4984373;28;20076;-81
2022/01/26 06:55:52;;;;;;;55.13;22.80;;;0.50;99.90;;;;;;4983217;28;20094;-80
2022/01/26 06:58:18;;;;;;;50.78;21.42;;;0.50;99.90;;;;;;4987050;28;20090;-80
2022/01/26 07:00:44;;;;;;;50.13;21.63;;;0.40;99.90;;;;;;4991954;28;20237;-80
2022/01/26 07:03:10;;;;;;;50.80;22.30;;;0.30;99.90;;;;;;4996173;28;20086;-81
2022/01/26 07:05:42;;;;;;;50.80;20.80;;;0.30;99.90;;;;;;4972575;28;20034;-80
2022/01/26 07:08:30;;;;;;;57.17;22.10;;;0.20;99.90;;;;;;4984597;28;20074;-81
2022/01/26 07:11:32;;;;;;;47.67;20.15;;;0.20;99.90;;;;;;4972034;28;20034;-81
2022/01/26 07:14:00;;;;;;;50.38;21.58;;;0.20;99.90;;;;;;4999393;28;20033;-82
2022/01/26 07:21:55;;;;;;;51.88;21.20;;;0.20;99.90;;;;;;4964724;28;20035;-81
2022/01/26 07:24:21;;;;;;;51.95;21.95;;;0.10;99.90;;;;;;4948713;29;20202;-80
2022/01/26 07:26:50;;;;;;;49.05;20.17;;;0.10;99.90;;;;;;4963596;29;20035;-80
2022/01/26 07:29:21;;;;;;;50.42;20.60;;;0.10;99.90;;;;;;4964387;28;20102;-80
2022/01/26 07:31:48;;;;;;;48.92;21.10;;;0.00;99.90;;;;;;4963629;28;20323;-80
2022/01/26 07:34:14;;;;;;;48.55;20.65;;;0.10;99.90;;;;;;4955207;28;20018;-83
2022/01/26 07:36:46;;;;;;;47.45;21.00;;;0.20;99.90;;;;;;4963427;28;20110;-79
2022/01/26 07:39:16;;;;;;;46.75;20.30;;;0.20;99.90;;;;;;4964135;29;20050;-81
2022/01/26 07:49:22;;;;;;;43.50;19.70;;;0.40;99.90;;;;;;4964170;28;20103;-81
2022/01/26 07:55:34;;;;;;;44.85;19.48;;;0.40;99.90;;;;;;4983879;28;20042;-81
2022/01/26 07:58:01;;;;;;;43.53;19.23;;;0.40;99.90;;;;;;4982378;28;20031;-82
2022/01/26 08:00:27;;;;;;;46.85;20.42;;;0.50;99.90;;;;;;4980008;28;20042;-80
2022/01/26 08:02:52;;;;;;;47.55;20.42;;;0.50;99.90;;;;;;4947075;29;20039;-80
2022/01/26 08:05:21;;;;;;;47.00;21.00;;;0.40;99.90;;;;;;4965125;28;20039;-81
2022/01/26 08:07:47;;;;;;;46.47;21.77;;;0.40;99.90;;;;;;4908851;29;20148;-79
2022/01/26 08:10:13;;;;;;;48.72;21.58;;;0.30;99.90;;;;;;4924300;29;20044;-80
2022/01/26 08:12:56;;;;;;;49.42;21.45;;;0.40;99.90;;;;;;4892483;29;20058;-79
2022/01/26 08:15:24;;;;;;;52.28;22.48;;;0.50;99.90;;;;;;4891948;29;20058;-80
2022/01/26 08:17:50;;;;;;;51.50;22.13;;;0.60;99.90;;;;;;4907623;29;20326;-81
2022/01/26 08:20:16;;;;;;;45.47;20.33;;;0.70;99.90;;;;;;4924234;29;20120;-79
2022/01/26 08:22:42;;;;;;;50.25;21.83;;;0.60;99.90;;;;;;4892286;29;20311;-82
2022/01/26 08:25:08;;;;;;;45.50;19.95;;;0.60;99.90;;;;;;4923990;29;20047;-79
2022/01/26 08:27:40;;;;;;;45.95;20.48;;;0.70;99.90;;;;;;4923828;29;20048;-80
2022/01/26 08:30:11;;;;;;;49.53;20.65;;;0.80;99.90;;;;;;4923498;29;20032;-81
2022/01/26 08:32:40;;;;;;;50.15;22.00;;;0.70;99.90;;;;;;4908405;29;20080;-80
2022/01/26 08:35:09;;;;;;;50.35;21.40;;;0.70;99.90;;;;;;4907877;29;20031;-80
2022/01/26 08:37:34;;;;;;;51.30;22.33;;;0.60;99.90;;;;;;4923986;29;20044;-79
2022/01/26 08:40:01;;;;;;;49.42;21.30;;;0.80;99.90;;;;;;4944445;29;20031;-80
2022/01/26 08:42:28;;;;;;;48.08;20.85;;;0.80;99.90;;;;;;4943722;29;20016;-82
2022/01/26 08:44:54;;;;;;;49.38;21.10;;;0.70;99.90;;;;;;4944163;29;20039;-80
2022/01/26 08:47:19;;;;;;;50.35;21.75;;;0.80;99.90;;;;;;4943698;29;20127;-80
2022/01/26 08:49:45;;;;;;;52.00;21.63;;;0.70;99.90;;;;;;4944270;29;20171;-79
2022/01/26 08:52:11;;;;;;;49.85;22.83;;;0.60;99.90;;;;;;4927658;29;20036;-80
2022/01/26 08:54:37;;;;;;;54.00;20.98;;;0.60;99.90;;;;;;4927333;29;20040;-80
2022/01/26 08:57:03;;;;;;;49.83;20.98;;;0.70;99.90;;;;;;4944211;29;20051;-80
2022/01/26 08:59:28;;;;;;;53.85;22.08;;;0.80;99.90;;;;;;4930726;29;20032;-81
2022/01/26 09:01:54;;;;;;;54.40;21.35;;;0.70;99.90;;;;;;4965268;28;20115;-80
2022/01/26 09:04:20;;;;;;;47.67;20.65;;;0.80;99.90;;;;;;4930924;29;20114;-81
2022/01/26 09:06:52;;;;;;;50.00;20.02;;;0.90;99.90;;;;;;4930463;29;20054;-81
2022/01/26 09:09:20;;;;;;;47.80;19.90;;;1.00;99.90;;;;;;4930529;29;20038;-81
2022/01/26 09:11:47;;;;;;;55.45;21.40;;;0.90;99.90;;;;;;4963288;29;20162;-79
2022/01/26 09:14:18;;;;;;;52.05;22.92;;;1.10;99.90;;;;;;4946532;29;20031;-81
2022/01/26 09:16:46;;;;;;;49.20;21.30;;;1.20;99.90;;;;;;4946203;28;20043;-81
2022/01/26 09:19:26;;;;;;;50.92;21.27;;;1.20;99.90;;;;;;4950468;29;20031;-80
2022/01/26 09:21:57;;;;;;;50.60;21.20;;;1.20;99.90;;;;;;4934657;29;20039;-81
2022/01/26 09:24:30;;;;;;;53.00;20.90;;;1.10;99.90;;;;;;4950161;29;20031;-80
2022/01/26 09:26:56;;;;;;;52.63;21.33;;;1.10;99.90;;;;;;4950009;29;20038;-81
2022/01/26 09:29:22;;;;;;;52.88;22.88;;;1.20;99.90;;;;;;4967046;29;20229;-82
2022/01/26 09:31:49;;;;;;;45.60;20.73;;;1.20;99.90;;;;;;4932956;29;20066;-81
2022/01/26 09:34:21;;;;;;;54.83;23.30;;;1.10;99.90;;;;;;4951478;29;20217;-80
2022/01/26 09:36:47;;;;;;;50.50;21.90;;;1.10;99.90;;;;;;4926482;29;20108;-81
2022/01/26 09:39:19;;;;;;;44.97;20.08;;;1.10;99.90;;;;;;4895515;29;20148;-82
2022/01/26 09:41:47;;;;;;;47.42;20.65;;;1.00;99.90;;;;;;4895309;29;20300;-81
2022/01/26 09:44:13;;;;;;;50.28;21.48;;;1.00;99.90;;;;;;4910846;29;20032;-80
2022/01/26 09:46:39;;;;;;;47.40;20.60;;;1.10;99.90;;;;;;4910211;29;20059;-81
2022/01/26 09:49:06;;;;;;;45.63;20.45;;;1.30;99.90;;;;;;4912518;29;20031;-80
2022/01/26 09:51:39;;;;;;;51.83;22.10;;;1.30;99.90;;;;;;4899077;29;20044;-80
2022/01/26 09:54:11;;;;;;;45.85;20.50;;;1.30;99.90;;;;;;4894789;29;20036;-80
2022/01/26 10:00:30;;;;;;;46.17;20.00;;;1.40;99.90;;;;;;4927831;28;20047;-81
2022/01/26 10:03:23;;;;;;;48.25;21.35;;;1.50;99.90;;;;;;4945445;29;20048;-81
2022/01/26 10:05:49;;;;;;;41.28;19.35;;;1.40;99.90;;;;;;4945284;29;20040;-81
2022/01/26 10:08:50;;;;;;;45.95;18.92;;;1.40;99.90;;;;;;4941691;28;20031;-81
2022/01/26 10:17:25;;;;;;;42.22;18.17;;;1.90;99.90;;;;;;4984661;28;20106;-81
2022/01/26 10:19:57;;;;;;;45.28;18.63;;;1.90;99.90;;;;;;4985022;28;20050;-83
2022/01/26 10:22:32;;;;;;;41.80;18.52;;;1.80;99.90;;;;;;4968727;28;20254;-82
2022/01/26 10:25:10;;;;;;;49.22;20.67;;;1.80;99.90;;;;;;4986012;28;20039;-82
2022/01/26 10:27:45;;;;;;;45.38;19.55;;;1.60;99.90;;;;;;4986898;28;20332;-81
2022/01/26 10:30:14;;;;;;;44.85;19.13;;;1.80;99.90;;;;;;4995759;28;20037;-82
2022/01/26 10:32:42;;;;;;;;;;;1.70;99.90;;;;;;4982309;28;20031;-78
2022/01/26 10:35:09;;;;;;;44.17;18.33;;;1.90;99.90;;;;;;4973896;28;19933;-83
2022/01/26 10:37:57;;;;;;;41.10;18.90;;;2.00;99.90;;;;;;4986078;28;20337;-82
2022/01/26 10:40:26;;;;;;;36.95;17.58;;;2.00;99.90;;;;;;4968496;28;20073;-81
2022/01/26 10:46:11;;;;;;;38.50;18.25;;;2.00;99.90;;;;;;4966980;28;20095;-81
2022/01/26 10:49:04;;;;;;;38.70;17.63;;;2.30;99.90;;;;;;4950959;28;20062;-82
2022/01/26 10:54:12;;;;;;;40.75;19.60;;;2.20;99.90;;;;;;4967365;28;20572;-82
2022/01/26 10:56:48;;;;;;;42.67;18.15;;;2.40;99.90;;;;;;4967876;28;20023;-83
2022/01/26 10:59:14;;;;;;;43.70;19.02;;;2.50;99.90;;;;;;4951992;28;20057;-80
2022/01/26 11:01:40;;;;;;;42.70;18.10;;;2.50;99.90;;;;;;4957093;29;20071;-82
2022/01/26 11:04:08;;;;;;;45.65;18.55;;;2.50;99.90;;;;;;4968755;28;20043;-81
2022/01/26 11:06:35;;;;;;;34.72;16.95;;;2.20;99.90;;;;;;4968169;29;20057;-80
2022/01/26 11:09:10;;;;;;;40.50;19.15;;;2.20;99.90;;;;;;4964200;28;20106;-82
2022/01/26 11:11:39;;;;;;;39.55;18.45;;;2.10;99.90;;;;;;4983944;28;20217;-84
2022/01/26 11:14:21;;;;;;;37.88;18.42;;;2.20;99.90;;;;;;4985770;28;20050;-80
2022/01/26 11:17:08;;;;;;;40.17;18.92;;;2.30;99.90;;;;;;4985805;28;20042;-81
2022/01/26 11:19:43;;;;;;;39.92;18.02;;;2.20;99.90;;;;;;4983272;28;20035;-82
2022/01/26 11:22:11;;;;;;;42.00;18.23;;;2.40;99.90;;;;;;4983139;28;20038;-81
2022/01/26 11:24:46;;;;;;;42.65;18.92;;;2.40;99.90;;;;;;4983269;28;20062;-81
2022/01/26 11:27:13;;;;;;;43.60;19.27;;;2.50;99.90;;;;;;4982960;28;20031;-82
2022/01/26 11:29:46;;;;;;;44.67;20.15;;;2.50;99.90;;;;;;4983629;28;20041;-81
2022/01/26 11:32:29;;;;;;;44.75;20.05;;;2.30;99.90;;;;;;4966434;28;20043;-82
2022/01/26 11:34:56;;;;;;;45.17;20.15;;;2.30;99.90;;;;;;4983205;28;20086;-82
2022/01/26 11:37:45;;;;;;;51.78;21.23;;;2.30;99.90;;;;;;4983460;28;20026;-81
2022/01/26 11:46:12;;;;;;;48.15;20.20;;;1.80;99.90;;;;;;4960589;28;20057;-81
2022/01/26 11:48:39;;;;;;;44.53;19.00;;;1.70;99.90;;;;;;4983612;28;20015;-80
2022/01/26 11:51:11;;;;;;;51.33;20.00;;;1.70;99.90;;;;;;4983207;28;20114;-81
2022/01/26 11:53:37;;;;;;;46.47;20.20;;;1.70;99.90;;;;;;4967122;28;20034;-81
2022/01/26 11:56:13;;;;;;;51.20;19.63;;;1.60;99.90;;;;;;4982520;28;20031;-82
2022/01/26 12:02:51;;;;;;;46.50;19.40;;;1.50;99.90;;;;;;4954367;28;20058;-80
2022/01/26 12:05:46;;;;;;;48.13;19.23;;;1.60;99.90;;;;;;4931122;29;20035;-82
2022/01/26 12:08:13;;;;;;;49.55;19.10;;;1.60;99.90;;;;;;4945692;29;20211;-79
2022/01/26 12:10:39;;;;;;;43.13;19.45;;;1.60;99.90;;;;;;4958543;29;20086;-80
2022/01/26 12:13:06;;;;;;;49.80;20.27;;;1.60;99.90;;;;;;4908161;29;20205;-80
2022/01/26 12:15:48;;;;;;;47.13;19.42;;;1.70;99.90;;;;;;4923784;29;20072;-81
2022/01/26 12:18:38;;;;;;;44.78;19.23;;;1.70;99.90;;;;;;4923648;29;20040;-81
2022/01/26 12:34:25;;;;;;;43.38;18.08;;;1.60;99.90;;;;;;4923884;29;20083;-82
2022/01/26 12:42:59;;;;;;;42.20;17.40;;;1.30;99.90;;;;;;4923748;29;20071;-79
2022/01/26 12:45:27;;;;;;;40.30;18.17;;;1.40;99.90;;;;;;4923214;29;20052;-79
2022/01/26 12:47:57;;;;;;;40.55;17.38;;;1.30;99.90;;;;;;4923142;29;20028;-81
2022/01/26 12:50:27;;;;;;;40.88;17.85;;;1.40;99.90;;;;;;4941025;29;20042;-79
2022/01/26 12:52:58;;;;;;;39.92;17.23;;;1.50;99.90;;;;;;4962539;29;20027;-81
2022/01/26 12:55:29;;;;;;;37.20;18.05;;;1.60;99.90;;;;;;4930664;29;20280;-79
2022/01/26 12:57:56;;;;;;;43.30;17.25;;;1.60;99.90;;;;;;4963611;29;20317;-80
2022/01/26 13:00:24;;;;;;;42.40;17.98;;;1.60;99.90;;;;;;4942917;29;20070;-81
2022/01/26 13:02:52;;;;;;;41.70;18.40;;;1.70;99.90;;;;;;4952553;28;20073;-80
2022/01/26 13:05:49;;;;;;;43.40;18.45;;;1.80;99.90;;;;;;4948459;29;20046;-85
2022/01/26 13:08:17;;;;;;;41.35;17.58;;;1.70;99.90;;;;;;4946141;29;20123;-82
2022/01/26 13:10:43;;;;;;;;;;;1.70;99.90;;;;;;4976736;28;20256;-83
2022/01/26 13:13:09;;;;;;;41.40;17.02;;;1.80;99.90;;;;;;4981417;28;19906;-82
2022/01/26 13:19:09;;;;;;;37.88;17.33;;;1.50;99.90;;;;;;4988868;28;20069;-85
2022/01/26 13:24:17;;;;;;;43.72;17.55;;;1.50;99.90;;;;;;4982387;28;20050;-81
2022/01/26 13:30:15;;;;;;;;;;;1.50;99.90;;;;;;4984983;28;20034;-83
2022/01/26 13:33:10;;;;;;;40.22;17.27;;;1.50;99.90;;;;;;4981791;28;19981;-83
2022/01/26 13:55:02;;;;;;;38.20;16.65;;;1.30;99.90;;;;;;4984016;28;20268;-81
2022/01/26 13:59:47;;;;;;;41.90;16.88;;;1.20;99.90;;;;;;4981596;28;20050;-81
2022/01/26 14:02:13;;;;;;;43.42;17.75;;;1.20;99.90;;;;;;4971354;28;20059;-82
2022/01/26 14:04:40;;;;;;;40.53;17.13;;;1.10;99.90;;;;;;4979110;28;20118;-79
2022/01/26 14:10:53;;;;;;;39.55;16.65;;;1.10;99.90;;;;;;4971013;29;20026;-80
2022/01/26 14:13:22;;;;;;;36.42;15.65;;;1.00;99.90;;;;;;4968891;29;20023;-83
2022/01/26 14:15:51;;;;;;;32.20;15.55;;;1.00;99.90;;;;;;4965248;28;20103;-83
2022/01/26 14:25:55;;;;;;;35.85;15.25;;;1.00;99.90;;;;;;4966180;28;20102;-82
2022/01/26 14:28:58;;;;;;;37.47;14.80;;;0.90;99.90;;;;;;4965343;29;20054;-81
2022/01/26 14:31:52;;;;;;;33.78;13.75;;;0.90;99.90;;;;;;4964865;28;20230;-82
2022/01/26 14:39:34;;;;;;;34.55;14.68;;;0.70;99.90;;;;;;4966430;28;20047;-81
2022/01/26 14:51:05;;;;;;;35.53;15.90;;;0.50;99.90;;;;;;4964918;29;20027;-81
2022/01/26 15:48:44;;;;;;;38.33;13.77;;;0.30;99.90;;;;;;4944549;29;20048;-81
2022/01/26 16:37:35;;;;;;;35.30;15.20;;;0.20;99.90;;;;;;4946683;29;20029;-80
2022/01/26 17:55:17;;;;;;;37.35;16.75;;;0.30;99.90;;;;;;4948095;29;20039;-81
2022/01/26 18:33:01;;;;;;;43.92;18.88;;;0.30;99.90;;;;;;4966391;29;20096;-81
2022/01/26 18:46:48;;;;;;;43.80;18.50;;;0.30;99.90;;;;;;4965192;28;20055;-83
2022/01/26 18:49:21;;;;;;;36.22;15.93;;;0.20;99.90;;;;;;4965914;29;20055;-80
2022/01/26 18:52:07;;;;;;;45.50;18.45;;;0.30;99.90;;;;;;4948198;29;20311;-79
2022/01/26 18:54:39;;;;;;;39.33;16.23;;;0.40;99.90;;;;;;4948368;29;20075;-79
2022/01/26 18:57:08;;;;;;;39.78;16.75;;;0.30;99.90;;;;;;4949059;29;20031;-82
2022/01/26 18:59:37;;;;;;;40.42;16.55;;;0.20;99.90;;;;;;4965365;28;20023;-81
2022/01/26 19:02:04;;;;;;;46.05;17.08;;;0.20;99.90;;;;;;4965546;28;20059;-80
2022/01/26 19:04:42;;;;;;;43.58;17.30;;;0.20;99.90;;;;;;4965901;29;20106;-79
2022/01/26 19:07:09;;;;;;;41.13;16.92;;;0.20;99.90;;;;;;4933353;29;20035;-80
2022/01/26 19:09:40;;;;;;;42.47;17.17;;;0.20;99.90;;;;;;4948517;29;20498;-79
2022/01/26 19:12:10;;;;;;;42.78;16.42;;;0.20;99.90;;;;;;4948885;29;20027;-81
2022/01/26 19:14:39;;;;;;;43.35;17.60;;;0.10;99.90;;;;;;4948088;29;20095;-79
2022/01/26 19:17:13;;;;;;;46.50;18.77;;;0.10;99.90;;;;;;4964961;28;20042;-80
2022/01/26 19:24:52;;;;;;;46.10;17.83;;;0.00;99.90;;;;;;4948015;29;20034;-81
2022/01/26 19:54:25;;;;;;;46.25;18.48;;;0.30;99.90;;;;;;4964748;29;20055;-82
2022/01/26 19:56:51;;;;;;;45.80;18.08;;;0.30;99.90;;;;;;4931728;29;20031;-82
2022/01/26 20:08:32;;;;;;;42.38;16.25;;;0.30;99.90;;;;;;4861745;29;20202;-83
2022/01/26 20:11:07;;;;;;;47.08;18.23;;;0.30;99.90;;;;;;4868519;29;20108;-82
2022/01/26 20:13:38;;;;;;;47.42;17.38;;;0.20;99.90;;;;;;4883133;29;20041;-82
2022/01/26 20:16:04;;;;;;;41.17;16.88;;;0.20;99.90;;;;;;4871243;29;20268;-82
2022/01/26 20:18:30;;;;;;;45.63;16.88;;;0.30;99.90;;;;;;4886591;29;20314;-83
2022/01/26 20:21:01;;;;;;;41.13;18.00;;;0.30;99.90;;;;;;4900954;29;20077;-82
2022/01/26 20:23:32;;;;;;;41.03;16.45;;;0.30;99.90;;;;;;4894041;29;20032;-82
2022/01/26 20:26:01;;;;;;;39.63;16.85;;;0.30;99.90;;;;;;4888177;29;20048;-82
2022/01/26 20:28:34;;;;;;;40.53;15.77;;;0.40;99.90;;;;;;4851798;29;20037;-82
2022/01/26 20:31:05;;;;;;;43.55;17.98;;;0.40;99.90;;;;;;4882429;29;20051;-82
2022/01/26 20:33:31;;;;;;;43.17;17.17;;;0.40;99.90;;;;;;4870563;29;20037;-82
2022/01/26 20:35:58;;;;;;;41.30;17.30;;;0.40;99.90;;;;;;4887050;29;20162;-82
2022/01/26 20:38:25;;;;;;;47.17;17.27;;;0.40;99.90;;;;;;4892676;29;20073;-81
2022/01/26 20:40:51;;;;;;;41.33;17.50;;;0.50;99.90;;;;;;4944991;29;20031;-81
2022/01/26 20:43:17;;;;;;;39.10;17.65;;;0.40;99.90;;;;;;4928470;29;20035;-81
2022/01/26 20:45:44;;;;;;;41.40;17.90;;;0.40;99.90;;;;;;4926802;29;20054;-82
2022/01/26 20:48:10;;;;;;;39.17;15.85;;;0.40;99.90;;;;;;4928346;29;20050;-82
2022/01/26 20:50:35;;;;;;;37.42;16.55;;;0.30;99.90;;;;;;4946854;29;20035;-82
2022/01/26 20:53:06;;;;;;;35.35;15.55;;;0.30;99.90;;;;;;4928323;29;20317;-82
2022/01/26 20:55:32;;;;;;;38.38;16.13;;;0.30;99.90;;;;;;4926088;29;20067;-83
2022/01/26 20:58:00;;;;;;;37.95;16.05;;;0.20;99.90;;;;;;4937999;29;20390;-82
2022/01/26 21:00:28;;;;;;;34.60;15.18;;;0.20;99.90;;;;;;4954069;29;20039;-83
2022/01/26 21:02:54;;;;;;;38.67;16.17;;;0.20;99.90;;;;;;4931490;29;20360;-83